Time;durP1;ratioP1;P1;durP2;ratioP2;P2;SDS_P1;SDS_P2;PMS_P1;PMS_P2;Temp;Humidity;BMP_temperature;BMP_pressure;BME280_temperature;BME280_humidity;BME280_pressure;Samples;Min_cycle;Max_cycle;Signal;HPM_P1;HPM_P2
2022/08/03 00:01:39;;;;;;;7.80;7.30;;;16.40;86.20;;;;;;4163915;28;20219;-70
2022/08/03 00:03:39;;;;;;;4.37;4.07;;;16.30;86.90;;;;;;4164478;28;20211;-70
2022/08/03 00:05:40;;;;;;;4.73;4.43;;;16.30;87.30;;;;;;4164481;28;20177;-69
2022/08/03 00:07:40;;;;;;;15.10;14.13;;;16.20;88.00;;;;;;4164739;28;20243;-69
2022/08/03 00:09:41;;;;;;;17.73;16.73;;;16.20;88.20;;;;;;4164450;28;20300;-70
2022/08/03 00:11:42;;;;;;;5.80;5.50;;;16.20;88.70;;;;;;4163852;28;20224;-70
2022/08/03 00:13:42;;;;;;;7.30;6.83;;;16.20;88.00;;;;;;4164492;28;20188;-69
2022/08/03 00:15:43;;;;;;;5.87;5.43;;;16.20;87.90;;;;;;4164199;28;20211;-69
2022/08/03 00:17:44;;;;;;;9.47;8.87;;;16.20;88.40;;;;;;4170374;28;20578;-68
2022/08/03 00:19:45;;;;;;;5.17;4.77;;;16.10;89.00;;;;;;4180863;28;20176;-68
2022/08/03 00:21:46;;;;;;;9.77;9.00;;;16.10;89.50;;;;;;4180234;28;20223;-69
2022/08/03 00:23:46;;;;;;;5.97;5.57;;;16.00;90.00;;;;;;4180997;28;20199;-70
2022/08/03 00:25:47;;;;;;;6.20;5.80;;;16.00;90.10;;;;;;4180739;28;20237;-70
2022/08/03 00:27:47;;;;;;;7.23;6.80;;;16.00;90.30;;;;;;4180830;28;20560;-69
2022/08/03 00:29:48;;;;;;;14.27;13.40;;;15.90;90.50;;;;;;4168848;28;20197;-71
2022/08/03 00:31:48;;;;;;;8.37;7.87;;;15.90;90.80;;;;;;4163343;28;20212;-69
2022/08/03 00:33:49;;;;;;;9.47;8.77;;;15.90;90.90;;;;;;4164185;28;20180;-69
2022/08/03 00:35:51;;;;;;;7.53;7.10;;;15.90;91.00;;;;;;4162576;28;20181;-69
2022/08/03 00:37:51;;;;;;;9.80;9.30;;;15.90;90.60;;;;;;4163865;28;20181;-70
2022/08/03 00:39:52;;;;;;;6.77;6.27;;;15.90;90.90;;;;;;4163856;28;20552;-69
2022/08/03 00:41:52;;;;;;;7.00;6.47;;;15.80;91.10;;;;;;4162819;28;20193;-69
2022/08/03 00:43:53;;;;;;;4.73;4.33;;;15.80;91.00;;;;;;4163738;28;20272;-69
2022/08/03 00:45:53;;;;;;;6.23;5.83;;;15.70;91.40;;;;;;4163908;28;20208;-70
2022/08/03 00:47:55;;;;;;;5.00;4.50;;;15.70;91.60;;;;;;4163532;28;20177;-69
2022/08/03 00:49:55;;;;;;;5.73;5.33;;;15.70;91.60;;;;;;4163611;28;20177;-69
2022/08/03 00:51:56;;;;;;;9.10;8.60;;;15.70;91.90;;;;;;4161834;28;20331;-70
2022/08/03 00:53:56;;;;;;;5.43;5.10;;;15.70;92.10;;;;;;4162273;28;20229;-70
2022/08/03 00:55:57;;;;;;;16.13;15.27;;;15.70;92.10;;;;;;4163461;28;20652;-69
2022/08/03 00:58:00;;;;;;;6.27;5.80;;;15.70;92.10;;;;;;4163484;28;20668;-70
2022/08/03 01:00:00;;;;;;;11.73;10.33;;;15.60;92.40;;;;;;4163491;28;20170;-69
2022/08/03 01:02:01;;;;;;;4.47;4.13;;;15.50;92.70;;;;;;4162862;28;20234;-69
2022/08/03 01:04:02;;;;;;;16.67;15.73;;;15.50;92.80;;;;;;4161797;28;20181;-70
2022/08/03 01:06:17;;;;;;;6.13;5.60;;;15.50;92.70;;;;;;4163484;28;20185;-70
2022/08/03 01:08:27;;;;;;;8.30;7.80;;;15.60;93.00;;;;;;4163343;28;20763;-69
2022/08/03 01:10:50;;;;;;;6.63;6.17;;;15.60;92.90;;;;;;4162500;28;20199;-69
2022/08/03 01:13:04;;;;;;;7.27;6.77;;;15.60;93.00;;;;;;4163325;28;20674;-69
2022/08/03 01:15:28;;;;;;;6.67;6.00;;;15.60;92.90;;;;;;4163144;28;20181;-69
2022/08/03 01:17:38;;;;;;;5.77;5.27;;;15.60;93.30;;;;;;4163278;28;20177;-69
2022/08/03 01:19:52;;;;;;;6.13;5.63;;;15.60;92.90;;;;;;4162947;28;20179;-69
2022/08/03 01:22:18;;;;;;;4.80;4.40;;;15.50;93.30;;;;;;4162484;28;20215;-70
2022/08/03 01:24:39;;;;;;;4.63;4.20;;;15.40;93.60;;;;;;4163045;28;20169;-69
2022/08/03 01:26:58;;;;;;;5.67;5.13;;;15.40;94.00;;;;;;4162836;28;20208;-70
2022/08/03 01:29:21;;;;;;;5.47;3.97;;;15.30;94.30;;;;;;4163214;28;20642;-70
2022/08/03 01:31:27;;;;;;;4.90;4.30;;;15.30;94.40;;;;;;4162379;28;20571;-69
2022/08/03 01:33:35;;;;;;;5.10;4.67;;;15.30;94.60;;;;;;4163453;28;20765;-70
2022/08/03 01:35:51;;;;;;;5.53;4.97;;;15.30;94.50;;;;;;4161736;28;20173;-70
2022/08/03 01:38:02;;;;;;;3.77;3.47;;;15.30;94.80;;;;;;4161816;28;20695;-69
2022/08/03 01:40:03;;;;;;;4.90;3.83;;;15.30;94.40;;;;;;4163188;28;20176;-69
2022/08/03 01:42:09;;;;;;;5.47;5.07;;;15.30;94.40;;;;;;4160781;28;20232;-70
2022/08/03 01:44:11;;;;;;;4.20;3.70;;;15.20;94.70;;;;;;4163622;28;20629;-69
2022/08/03 01:46:14;;;;;;;4.23;3.80;;;15.20;95.10;;;;;;4162239;28;20379;-69
2022/08/03 01:48:17;;;;;;;4.33;3.87;;;15.20;95.40;;;;;;4163405;28;20259;-70
2022/08/03 01:50:26;;;;;;;5.53;4.70;;;15.10;95.40;;;;;;4162230;28;20205;-69
2022/08/03 01:52:29;;;;;;;5.73;5.10;;;15.10;95.40;;;;;;4161648;28;20183;-70
2022/08/03 01:54:33;;;;;;;5.37;4.97;;;15.10;95.80;;;;;;4162672;28;20272;-70
2022/08/03 01:56:35;;;;;;;5.90;5.50;;;15.10;95.80;;;;;;4161221;28;20189;-69
2022/08/03 01:58:37;;;;;;;4.47;4.07;;;15.10;95.80;;;;;;4162589;28;20203;-69
2022/08/03 02:00:39;;;;;;;3.97;3.57;;;15.10;95.90;;;;;;4161908;28;20305;-70
2022/08/03 02:02:42;;;;;;;4.57;4.17;;;15.00;96.10;;;;;;4162629;28;20195;-69
2022/08/03 02:04:44;;;;;;;4.87;4.47;;;15.00;96.50;;;;;;4162637;28;20615;-69
2022/08/03 02:06:46;;;;;;;5.57;5.03;;;15.00;96.30;;;;;;4161169;28;20216;-69
2022/08/03 02:08:48;;;;;;;5.33;3.50;;;15.00;96.50;;;;;;4162618;28;20193;-69
2022/08/03 02:10:50;;;;;;;5.00;4.50;;;15.00;96.70;;;;;;4161775;28;20224;-70
2022/08/03 02:12:52;;;;;;;5.27;4.87;;;15.00;96.60;;;;;;4167780;28;20256;-69
2022/08/03 02:14:53;;;;;;;5.60;4.70;;;14.90;96.60;;;;;;4179152;28;20194;-69
2022/08/03 02:16:55;;;;;;;3.70;3.30;;;14.90;96.80;;;;;;4178856;28;20237;-70
2022/08/03 02:18:57;;;;;;;4.77;4.23;;;14.90;96.80;;;;;;4178870;28;20562;-69
2022/08/03 02:21:00;;;;;;;6.60;5.87;;;14.90;97.10;;;;;;4178171;28;20259;-69
2022/08/03 02:23:02;;;;;;;5.27;4.87;;;14.90;97.30;;;;;;4173015;28;20200;-69
2022/08/03 02:25:02;;;;;;;4.90;4.40;;;14.90;97.50;;;;;;4174431;28;20216;-70
2022/08/03 02:27:09;;;;;;;4.20;3.80;;;14.80;97.60;;;;;;4178851;28;20552;-70
2022/08/03 02:29:17;;;;;;;4.57;4.17;;;14.80;97.50;;;;;;4178650;28;20178;-70
2022/08/03 02:31:22;;;;;;;5.20;4.23;;;14.80;97.40;;;;;;4177813;28;20311;-69
2022/08/03 02:33:42;;;;;;;3.90;3.50;;;14.70;97.60;;;;;;4178952;28;20664;-70
2022/08/03 02:35:45;;;;;;;6.13;4.00;;;14.70;98.10;;;;;;4178687;28;20199;-70
2022/08/03 02:37:51;;;;;;;4.17;3.67;;;14.70;98.30;;;;;;4178667;28;20644;-70
2022/08/03 02:39:56;;;;;;;4.60;3.60;;;14.70;98.40;;;;;;4178823;28;20642;-70
2022/08/03 02:42:04;;;;;;;3.77;3.47;;;14.60;98.50;;;;;;4176702;28;20216;-70
2022/08/03 02:44:08;;;;;;;5.73;3.77;;;14.60;98.60;;;;;;4178607;28;20187;-70
2022/08/03 02:46:12;;;;;;;4.63;4.00;;;14.60;98.80;;;;;;4178625;28;20188;-70
2022/08/03 02:48:17;;;;;;;4.90;4.37;;;14.60;99.20;;;;;;4178736;28;20192;-70
2022/08/03 02:50:18;;;;;;;5.33;4.87;;;14.60;99.30;;;;;;4177972;28;20193;-70
2022/08/03 02:52:22;;;;;;;4.83;4.33;;;14.50;99.30;;;;;;4178557;28;20196;-70
2022/08/03 02:54:25;;;;;;;3.97;3.67;;;14.50;99.70;;;;;;4177435;28;20733;-70
2022/08/03 02:56:27;;;;;;;4.23;3.80;;;14.60;99.70;;;;;;4178448;28;20191;-70
2022/08/03 02:58:30;;;;;;;4.13;3.73;;;14.60;99.80;;;;;;4179624;28;20237;-70
2022/08/03 03:00:31;;;;;;;4.53;4.03;;;14.50;99.30;;;;;;4181273;28;20192;-73
2022/08/03 03:02:33;;;;;;;4.87;4.43;;;14.50;99.30;;;;;;4180558;28;20215;-71
2022/08/03 03:04:34;;;;;;;5.10;4.17;;;14.50;99.50;;;;;;4180628;28;20297;-70
2022/08/03 03:06:36;;;;;;;5.30;4.80;;;14.50;99.50;;;;;;4181913;28;20211;-70
2022/08/03 03:08:36;;;;;;;5.33;4.63;;;14.50;99.60;;;;;;4181733;28;20287;-70
2022/08/03 03:10:38;;;;;;;5.83;4.27;;;14.50;99.70;;;;;;4180984;28;20204;-70
2022/08/03 03:12:41;;;;;;;7.50;4.43;;;14.50;99.80;;;;;;4181657;28;20180;-70
2022/08/03 03:14:42;;;;;;;4.73;4.33;;;14.40;99.90;;;;;;4181619;28;20188;-70
2022/08/03 03:16:44;;;;;;;4.73;3.83;;;14.40;99.90;;;;;;4181499;28;20187;-70
2022/08/03 03:18:46;;;;;;;5.23;3.87;;;14.40;99.90;;;;;;4181483;28;20579;-71
2022/08/03 03:20:49;;;;;;;5.57;5.07;;;14.40;99.90;;;;;;4180890;28;20207;-69
2022/08/03 03:22:50;;;;;;;4.33;3.93;;;14.40;99.90;;;;;;4181366;28;20671;-70
2022/08/03 03:24:52;;;;;;;4.93;4.53;;;14.30;99.90;;;;;;4181546;28;20196;-70
2022/08/03 03:26:53;;;;;;;7.27;5.63;;;14.30;99.90;;;;;;4181580;28;20210;-70
2022/08/03 03:28:54;;;;;;;4.87;4.37;;;14.20;99.90;;;;;;4181636;28;20183;-70
2022/08/03 03:30:55;;;;;;;4.97;4.47;;;14.20;99.90;;;;;;4180776;28;20295;-70
2022/08/03 03:32:57;;;;;;;4.50;4.10;;;14.20;99.90;;;;;;4181436;28;20187;-71
2022/08/03 03:34:58;;;;;;;5.13;4.63;;;14.20;99.90;;;;;;4181587;28;20188;-70
2022/08/03 03:37:00;;;;;;;4.47;4.13;;;14.20;99.90;;;;;;4181351;28;20181;-71
2022/08/03 03:39:00;;;;;;;6.73;6.13;;;14.20;99.90;;;;;;4181266;28;20188;-71
2022/08/03 03:41:02;;;;;;;6.07;5.57;;;14.20;99.90;;;;;;4180293;28;20203;-71
2022/08/03 03:43:06;;;;;;;4.87;4.47;;;14.20;99.90;;;;;;4180980;28;20564;-72
2022/08/03 03:45:08;;;;;;;4.90;4.30;;;14.20;99.90;;;;;;4181198;28;20271;-71
2022/08/03 03:47:09;;;;;;;4.60;4.20;;;14.20;99.90;;;;;;4180915;28;20187;-70
2022/08/03 03:49:10;;;;;;;4.23;3.83;;;14.10;99.90;;;;;;4180993;28;20649;-71
2022/08/03 03:51:11;;;;;;;5.03;4.53;;;14.10;99.90;;;;;;4180035;28;20307;-71
2022/08/03 03:53:12;;;;;;;6.50;4.60;;;14.10;99.90;;;;;;4182057;28;20172;-71
2022/08/03 03:55:17;;;;;;;5.77;5.20;;;14.10;99.90;;;;;;4181587;28;20183;-71
2022/08/03 03:57:17;;;;;;;4.87;4.37;;;14.10;99.90;;;;;;4180752;28;20185;-70
2022/08/03 03:59:18;;;;;;;4.40;4.00;;;14.10;99.90;;;;;;4179849;28;20545;-71
2022/08/03 04:01:19;;;;;;;6.07;5.53;;;14.10;99.90;;;;;;4180405;28;20703;-71
2022/08/03 04:03:20;;;;;;;5.67;5.17;;;14.20;99.90;;;;;;4179820;28;20245;-71
2022/08/03 04:12:41;;;;;;;4.63;4.23;;;14.20;99.90;;;;;;4181120;28;20195;-71
2022/08/03 04:14:42;;;;;;;4.50;4.03;;;14.20;99.90;;;;;;4180878;28;20200;-71
2022/08/03 04:16:50;;;;;;;5.40;4.90;;;14.20;99.90;;;;;;4180481;28;20172;-70
2022/08/03 04:19:03;;;;;;;5.50;4.93;;;14.20;99.90;;;;;;4180687;28;20557;-70
2022/08/03 04:21:10;;;;;;;4.73;3.90;;;14.20;99.90;;;;;;4181138;28;20211;-70
2022/08/03 04:23:12;;;;;;;5.10;4.37;;;14.20;99.90;;;;;;4180974;28;20671;-70
2022/08/03 04:25:16;;;;;;;5.43;5.00;;;14.20;99.90;;;;;;4180824;28;20523;-71
2022/08/03 04:27:24;;;;;;;5.17;4.17;;;14.30;99.90;;;;;;4181262;28;20191;-72
2022/08/03 04:29:27;;;;;;;4.57;4.10;;;14.20;99.90;;;;;;4181881;28;20632;-70
2022/08/03 04:31:29;;;;;;;4.70;4.30;;;14.20;99.90;;;;;;4166482;28;20282;-71
2022/08/03 04:33:36;;;;;;;4.50;4.10;;;14.20;99.90;;;;;;4165511;28;20177;-70
2022/08/03 04:35:36;;;;;;;4.43;3.63;;;14.20;99.90;;;;;;4165426;28;20807;-71
2022/08/03 04:37:41;;;;;;;5.50;5.00;;;14.30;99.90;;;;;;4165792;28;20209;-70
2022/08/03 04:39:44;;;;;;;4.67;4.13;;;14.30;99.90;;;;;;4177944;28;20187;-70
2022/08/03 04:41:47;;;;;;;4.63;4.23;;;14.30;99.90;;;;;;4179682;28;20204;-70
2022/08/03 04:43:49;;;;;;;4.77;4.33;;;14.40;99.90;;;;;;4180051;28;20271;-70
2022/08/03 04:45:51;;;;;;;5.63;4.10;;;14.40;99.90;;;;;;4181660;28;20569;-70
2022/08/03 04:47:52;;;;;;;3.93;3.57;;;14.50;99.90;;;;;;4181343;28;20722;-70
2022/08/03 04:49:53;;;;;;;4.20;3.80;;;14.40;99.90;;;;;;4180831;28;20630;-69
2022/08/03 04:51:54;;;;;;;3.90;3.40;;;14.50;99.90;;;;;;4179574;28;20207;-71
2022/08/03 04:53:54;;;;;;;4.23;3.10;;;14.50;99.90;;;;;;4180083;28;20787;-71
2022/08/03 04:56:02;;;;;;;5.00;4.63;;;14.60;99.90;;;;;;4180269;28;20229;-71
2022/08/03 04:58:03;;;;;;;4.73;3.90;;;14.60;99.90;;;;;;4180161;28;20633;-71
2022/08/03 05:00:05;;;;;;;6.27;4.17;;;14.60;99.90;;;;;;4178675;28;20192;-71
2022/08/03 05:02:06;;;;;;;5.17;3.73;;;14.60;99.90;;;;;;4180526;28;20192;-71
2022/08/03 05:04:06;;;;;;;4.43;3.70;;;14.70;99.90;;;;;;4180089;28;20275;-71
2022/08/03 05:06:08;;;;;;;3.87;3.50;;;14.70;99.90;;;;;;4179948;28;20673;-71
2022/08/03 05:08:09;;;;;;;4.90;3.57;;;14.70;99.90;;;;;;4180251;28;20808;-71
2022/08/03 05:10:11;;;;;;;3.97;3.43;;;14.80;99.90;;;;;;4180352;28;20215;-70
2022/08/03 05:12:11;;;;;;;6.43;5.93;;;14.80;99.90;;;;;;4181364;28;20200;-71
2022/08/03 05:14:12;;;;;;;3.90;3.27;;;14.80;99.90;;;;;;4181410;28;20225;-71
2022/08/03 05:16:13;;;;;;;5.00;4.60;;;14.90;99.90;;;;;;4181076;28;20186;-71
2022/08/03 05:18:14;;;;;;;6.47;5.63;;;14.90;99.90;;;;;;4181100;28;20569;-71
2022/08/03 05:20:14;;;;;;;4.37;3.93;;;14.90;99.90;;;;;;4180567;28;20214;-70
2022/08/03 05:22:15;;;;;;;4.10;3.20;;;15.00;99.90;;;;;;4180244;28;20615;-71
2022/08/03 05:24:16;;;;;;;4.17;3.77;;;15.10;99.90;;;;;;4180980;28;20180;-71
2022/08/03 05:26:16;;;;;;;3.87;3.57;;;15.10;99.90;;;;;;4181146;28;20186;-71
2022/08/03 05:28:17;;;;;;;5.07;4.57;;;15.30;99.90;;;;;;4181175;28;20180;-71
2022/08/03 05:30:18;;;;;;;4.47;3.93;;;15.30;99.90;;;;;;4180132;28;20802;-71
2022/08/03 05:32:18;;;;;;;5.47;4.50;;;15.30;99.90;;;;;;4181032;28;20215;-71
2022/08/03 05:34:19;;;;;;;5.70;4.23;;;15.30;99.90;;;;;;4180110;28;20256;-71
2022/08/03 05:36:19;;;;;;;3.70;3.40;;;15.40;99.90;;;;;;4180863;28;20184;-71
2022/08/03 05:38:20;;;;;;;5.37;4.97;;;15.50;99.90;;;;;;4180794;28;20234;-71
2022/08/03 05:40:20;;;;;;;4.87;4.47;;;15.50;99.90;;;;;;4178956;28;20211;-71
2022/08/03 05:42:21;;;;;;;4.47;4.07;;;15.50;99.90;;;;;;4180824;28;20230;-71
2022/08/03 05:44:24;;;;;;;6.20;5.80;;;15.60;99.90;;;;;;4179575;28;20215;-71
2022/08/03 05:46:24;;;;;;;4.20;3.77;;;15.60;99.90;;;;;;4180562;28;20283;-71
2022/08/03 05:48:25;;;;;;;6.13;5.63;;;15.70;99.90;;;;;;4179759;28;20184;-71
2022/08/03 05:50:26;;;;;;;5.43;5.03;;;15.80;99.90;;;;;;4178305;28;20218;-71
2022/08/03 05:52:26;;;;;;;5.00;4.60;;;15.90;99.90;;;;;;4178986;28;20249;-71
2022/08/03 05:54:27;;;;;;;5.80;5.40;;;15.90;99.90;;;;;;4179068;28;20242;-71
2022/08/03 05:56:27;;;;;;;4.63;4.23;;;16.00;99.90;;;;;;4179402;28;20661;-71
2022/08/03 05:58:28;;;;;;;9.93;9.37;;;16.00;99.80;;;;;;4178610;28;20180;-71
2022/08/03 06:00:29;;;;;;;4.80;4.50;;;16.10;99.90;;;;;;4178187;28;20196;-71
2022/08/03 06:02:29;;;;;;;9.70;9.10;;;16.20;99.60;;;;;;4178846;28;20177;-72
2022/08/03 06:04:30;;;;;;;61.30;56.33;;;16.20;99.90;;;;;;4178889;28;20180;-72
2022/08/03 06:06:31;;;;;;;16.53;15.67;;;16.30;99.80;;;;;;4178957;28;20187;-72
2022/08/03 06:08:31;;;;;;;14.60;13.60;;;16.40;99.50;;;;;;4178798;28;20202;-71
2022/08/03 06:10:32;;;;;;;8.43;7.83;;;16.50;99.10;;;;;;4177779;28;20204;-71
2022/08/03 06:12:36;;;;;;;16.27;15.47;;;16.60;98.70;;;;;;4177742;28;20207;-72
2022/08/03 06:14:36;;;;;;;18.10;17.10;;;16.60;98.90;;;;;;4179205;28;20222;-72
2022/08/03 06:16:37;;;;;;;20.77;19.77;;;16.70;99.00;;;;;;4177695;28;20548;-71
2022/08/03 06:18:37;;;;;;;15.27;14.37;;;16.70;98.30;;;;;;4178618;28;20550;-71
2022/08/03 06:20:38;;;;;;;10.33;9.73;;;16.80;98.00;;;;;;4177951;28;20265;-71
2022/08/03 06:22:39;;;;;;;15.47;14.73;;;16.90;97.80;;;;;;4178600;28;20552;-71
2022/08/03 06:24:39;;;;;;;15.23;14.40;;;17.00;97.70;;;;;;4178710;28;20169;-71
2022/08/03 06:26:40;;;;;;;17.80;16.83;;;17.00;97.40;;;;;;4177366;28;20568;-71
2022/08/03 06:28:43;;;;;;;20.50;19.17;;;17.10;97.10;;;;;;4178693;28;20180;-71
2022/08/03 06:30:44;;;;;;;14.17;13.27;;;17.20;97.10;;;;;;4177886;28;20277;-71
2022/08/03 06:32:45;;;;;;;16.20;15.13;;;17.40;96.40;;;;;;4177103;28;20231;-71
2022/08/03 06:34:45;;;;;;;16.67;15.80;;;17.50;96.40;;;;;;4178654;28;20180;-71
2022/08/03 06:36:48;;;;;;;29.03;26.60;;;17.70;95.40;;;;;;4178497;28;20173;-71
2022/08/03 06:38:49;;;;;;;7.63;7.23;;;17.80;94.90;;;;;;4169128;28;20185;-71
2022/08/03 06:40:49;;;;;;;11.10;10.47;;;18.10;93.30;;;;;;4161421;28;20350;-71
2022/08/03 06:42:50;;;;;;;24.93;13.20;;;18.20;92.60;;;;;;4162096;28;20232;-72
2022/08/03 06:44:51;;;;;;;7.23;6.83;;;18.40;92.20;;;;;;4162099;28;20231;-71
2022/08/03 06:46:51;;;;;;;10.83;10.20;;;18.80;90.60;;;;;;4162158;28;20332;-71
2022/08/03 06:48:52;;;;;;;6.73;6.33;;;19.20;87.20;;;;;;4161025;28;20739;-71
2022/08/03 06:50:53;;;;;;;3.17;2.97;;;19.50;85.00;;;;;;4160222;28;20322;-72
2022/08/03 06:52:54;;;;;;;4.93;4.60;;;19.90;82.20;;;;;;4161944;28;20185;-71
2022/08/03 06:54:55;;;;;;;5.33;5.00;;;20.10;81.40;;;;;;4162123;28;20264;-71
2022/08/03 06:56:55;;;;;;;6.17;5.83;;;20.30;77.10;;;;;;4162095;28;20550;-71
2022/08/03 06:58:56;;;;;;;6.17;5.77;;;20.50;73.20;;;;;;4162085;28;20173;-71
2022/08/03 07:00:57;;;;;;;2.90;2.73;;;20.70;71.30;;;;;;4160232;28;20247;-71
2022/08/03 07:02:57;;;;;;;8.00;7.60;;;20.90;70.20;;;;;;4160729;28;20189;-71
2022/08/03 07:04:58;;;;;;;22.23;20.40;;;21.10;69.10;;;;;;4162145;28;20193;-72
2022/08/03 07:06:58;;;;;;;5.17;4.27;;;21.00;67.60;;;;;;4160995;28;20232;-72
2022/08/03 07:08:59;;;;;;;6.30;5.90;;;21.30;66.80;;;;;;4160686;28;20209;-73
2022/08/03 07:11:00;;;;;;;6.10;5.70;;;21.20;68.00;;;;;;4160043;28;20217;-71
2022/08/03 07:13:01;;;;;;;65.10;50.90;;;21.40;66.00;;;;;;4160693;28;20212;-73
2022/08/03 07:15:04;;;;;;;5.07;4.67;;;21.60;62.00;;;;;;4161990;28;20837;-72
2022/08/03 07:17:04;;;;;;;2.77;2.57;;;21.90;62.40;;;;;;4160633;28;20192;-71
2022/08/03 07:19:05;;;;;;;7.63;6.37;;;21.90;62.00;;;;;;4160605;28;20673;-71
2022/08/03 07:21:07;;;;;;;14.83;13.23;;;22.00;61.60;;;;;;4159991;28;20258;-71
2022/08/03 07:23:08;;;;;;;13.33;9.73;;;22.10;59.20;;;;;;4160622;28;20181;-71
2022/08/03 07:25:09;;;;;;;1.90;1.80;;;22.30;59.70;;;;;;4160544;28;20691;-72
2022/08/03 07:27:10;;;;;;;1.80;1.70;;;22.40;57.40;;;;;;4161398;28;20181;-73
2022/08/03 07:29:11;;;;;;;5.43;5.13;;;22.50;56.50;;;;;;4144722;28;20244;-76
2022/08/03 07:31:11;;;;;;;41.37;37.53;;;22.40;59.20;;;;;;4161059;28;20316;-72
2022/08/03 07:33:12;;;;;;;3.77;3.47;;;22.60;56.20;;;;;;4160666;28;20674;-72
2022/08/03 07:35:13;;;;;;;2.53;2.00;;;22.50;56.60;;;;;;4160543;28;20181;-73
2022/08/03 07:37:14;;;;;;;8.57;8.03;;;22.70;56.30;;;;;;4161696;28;20185;-72
2022/08/03 07:39:14;;;;;;;1.97;1.80;;;22.60;55.00;;;;;;4161875;28;20231;-72
2022/08/03 07:41:15;;;;;;;4.37;4.03;;;22.70;56.20;;;;;;4161040;28;20228;-72
2022/08/03 07:43:16;;;;;;;2.97;2.77;;;22.80;55.30;;;;;;4161746;28;20188;-72
2022/08/03 07:45:17;;;;;;;1.90;1.80;;;22.90;54.80;;;;;;4163475;28;20217;-73
2022/08/03 07:47:20;;;;;;;3.83;3.53;;;23.00;55.30;;;;;;4164606;28;20181;-72
2022/08/03 07:49:21;;;;;;;2.50;2.30;;;23.10;53.80;;;;;;4163383;28;20533;-72
2022/08/03 07:51:22;;;;;;;4.03;3.77;;;23.40;54.10;;;;;;4164350;28;20208;-72
2022/08/03 07:53:22;;;;;;;2.37;2.17;;;23.40;53.70;;;;;;4164622;28;20187;-72
2022/08/03 07:55:25;;;;;;;21.17;19.57;;;23.70;52.90;;;;;;4164596;28;20176;-72
2022/08/03 07:57:26;;;;;;;2.87;2.67;;;23.70;52.90;;;;;;4164607;28;20271;-72
2022/08/03 07:59:27;;;;;;;8.40;7.80;;;23.70;52.50;;;;;;4164512;28;20185;-73
2022/08/03 08:01:28;;;;;;;3.20;2.20;;;23.80;51.40;;;;;;4162276;28;20259;-73
2022/08/03 08:03:29;;;;;;;4.37;4.07;;;23.90;51.70;;;;;;4165461;28;20180;-73
2022/08/03 08:05:30;;;;;;;15.40;14.43;;;24.00;52.40;;;;;;4180554;28;20536;-73
2022/08/03 08:07:31;;;;;;;5.07;4.77;;;24.10;48.70;;;;;;4179074;28;20187;-72
2022/08/03 08:09:31;;;;;;;6.20;5.80;;;24.20;48.80;;;;;;4178312;28;20653;-72
2022/08/03 08:11:32;;;;;;;4.73;4.40;;;24.50;48.40;;;;;;4177815;28;20343;-72
2022/08/03 08:13:33;;;;;;;1.70;1.60;;;24.40;48.20;;;;;;4179623;28;20172;-72
2022/08/03 08:15:34;;;;;;;6.93;5.63;;;24.40;48.10;;;;;;4179561;28;20719;-73
2022/08/03 08:17:46;;;;;;;2.63;2.43;;;24.60;48.00;;;;;;4178281;28;20176;-72
2022/08/03 08:19:46;;;;;;;8.37;7.80;;;24.70;48.70;;;;;;4178144;28;20184;-72
2022/08/03 08:21:47;;;;;;;5.40;5.10;;;24.80;46.20;;;;;;4160872;28;20205;-71
2022/08/03 08:23:47;;;;;;;3.60;2.53;;;24.90;45.70;;;;;;4180400;28;20271;-72
2022/08/03 08:25:50;;;;;;;10.13;9.53;;;25.00;45.40;;;;;;4180609;28;20181;-72
2022/08/03 08:27:51;;;;;;;2.23;2.10;;;25.00;45.20;;;;;;4179350;28;20188;-71
2022/08/03 08:29:52;;;;;;;68.17;63.83;;;25.00;44.50;;;;;;4177153;28;20198;-72
2022/08/03 08:31:53;;;;;;;2.27;1.90;;;25.10;44.20;;;;;;4162168;28;20265;-72
2022/08/03 08:33:54;;;;;;;14.23;13.40;;;25.10;44.20;;;;;;4163915;28;20296;-71
2022/08/03 08:35:54;;;;;;;3.03;2.87;;;25.20;42.60;;;;;;4162605;28;20184;-72
2022/08/03 08:37:55;;;;;;;3.67;3.47;;;25.20;43.80;;;;;;4163847;28;20173;-71
2022/08/03 08:39:56;;;;;;;3.30;2.30;;;25.50;42.60;;;;;;4163606;28;20183;-71
2022/08/03 08:41:57;;;;;;;2.37;2.13;;;25.50;41.90;;;;;;4162232;28;20205;-71
2022/08/03 08:43:57;;;;;;;2.30;2.17;;;25.50;42.60;;;;;;4163966;28;20193;-72
2022/08/03 08:45:59;;;;;;;14.57;13.57;;;25.60;42.20;;;;;;4163662;28;20184;-72
2022/08/03 08:48:02;;;;;;;2.50;2.30;;;25.70;41.70;;;;;;4162404;28;20217;-71
2022/08/03 08:50:04;;;;;;;2.27;2.07;;;25.60;41.10;;;;;;4163611;28;20785;-72
2022/08/03 08:52:07;;;;;;;3.47;2.60;;;26.00;40.90;;;;;;4162837;28;20254;-72
2022/08/03 08:54:10;;;;;;;3.03;2.83;;;26.20;39.50;;;;;;4162349;28;20186;-71
2022/08/03 08:56:16;;;;;;;3.43;2.13;;;26.30;41.10;;;;;;4162246;28;20267;-71
2022/08/03 08:58:21;;;;;;;2.83;2.63;;;26.30;39.20;;;;;;4162328;28;20164;-72
2022/08/03 09:00:21;;;;;;;4.57;4.27;;;26.40;38.60;;;;;;4161469;28;20192;-71
2022/08/03 09:02:23;;;;;;;4.70;4.00;;;26.40;38.70;;;;;;4163418;28;20189;-71
2022/08/03 09:04:25;;;;;;;8.20;7.67;;;26.40;38.80;;;;;;4162106;28;20221;-71
2022/08/03 09:06:26;;;;;;;5.00;4.70;;;26.60;38.10;;;;;;4162081;28;20184;-71
2022/08/03 09:08:29;;;;;;;2.63;2.43;;;26.70;37.60;;;;;;4163339;28;20204;-72
2022/08/03 09:10:30;;;;;;;30.50;28.70;;;26.50;39.10;;;;;;4161502;28;20220;-72
2022/08/03 09:12:41;;;;;;;6.80;6.40;;;26.30;37.50;;;;;;4163361;28;20177;-71
2022/08/03 09:14:42;;;;;;;3.53;2.10;;;26.20;37.90;;;;;;4162195;28;20161;-71
2022/08/03 09:17:01;;;;;;;3.60;2.23;;;26.40;38.70;;;;;;4163234;28;20203;-71
2022/08/03 09:19:13;;;;;;;61.47;57.70;;;26.60;38.60;;;;;;4161815;28;20183;-71
2022/08/03 09:21:22;;;;;;;5.83;3.60;;;26.90;36.90;;;;;;4161293;28;20262;-71
2022/08/03 09:23:23;;;;;;;2.80;2.10;;;27.30;38.40;;;;;;4161601;28;20185;-71
2022/08/03 09:25:57;;;;;;;2.33;2.13;;;27.30;37.00;;;;;;4161761;28;20177;-71
2022/08/03 09:28:17;;;;;;;3.00;2.80;;;27.50;36.10;;;;;;4161792;28;20179;-71
2022/08/03 09:30:19;;;;;;;4.13;3.07;;;27.90;34.10;;;;;;4162294;28;20200;-70
2022/08/03 09:32:23;;;;;;;6.40;5.90;;;27.60;34.30;;;;;;4162670;28;20692;-70
2022/08/03 09:34:27;;;;;;;2.20;2.00;;;27.30;34.60;;;;;;4162786;28;20177;-70
2022/08/03 09:36:34;;;;;;;2.53;2.33;;;27.30;34.40;;;;;;4161416;28;20279;-71
2022/08/03 09:38:35;;;;;;;3.23;2.10;;;27.40;35.20;;;;;;4162772;28;20172;-70
2022/08/03 09:40:36;;;;;;;2.37;2.17;;;27.40;34.60;;;;;;4161978;28;21112;-70
2022/08/03 09:42:56;;;;;;;4.03;3.77;;;27.80;33.90;;;;;;4162831;28;20187;-70
2022/08/03 09:44:57;;;;;;;2.50;2.30;;;27.70;32.90;;;;;;4161305;28;20176;-70
2022/08/03 09:46:58;;;;;;;11.43;10.77;;;27.80;33.60;;;;;;4162786;28;20191;-70
2022/08/03 09:49:10;;;;;;;2.23;2.10;;;27.60;32.30;;;;;;4162787;28;20185;-69
2022/08/03 09:51:12;;;;;;;8.53;8.07;;;27.50;32.80;;;;;;4162043;28;20555;-70
2022/08/03 09:53:13;;;;;;;6.10;5.73;;;27.60;32.00;;;;;;4163082;28;20180;-70
2022/08/03 09:55:14;;;;;;;3.00;2.43;;;27.90;32.50;;;;;;4163083;28;20956;-70
2022/08/03 09:57:23;;;;;;;1.90;1.80;;;28.40;31.10;;;;;;4163057;28;20189;-70
2022/08/03 09:59:29;;;;;;;2.30;2.10;;;28.30;32.80;;;;;;4163233;28;20597;-70
2022/08/03 10:01:34;;;;;;;16.77;15.73;;;28.50;33.00;;;;;;4173107;28;20692;-70
2022/08/03 10:03:38;;;;;;;3.17;2.97;;;28.50;32.00;;;;;;4178280;28;20263;-70
2022/08/03 10:05:43;;;;;;;11.27;10.57;;;28.30;31.70;;;;;;4178029;28;20188;-69
2022/08/03 10:07:46;;;;;;;11.20;10.60;;;28.20;32.00;;;;;;4178725;28;20891;-70
2022/08/03 10:10:01;;;;;;;2.50;1.80;;;28.60;31.50;;;;;;4179224;28;20180;-70
2022/08/03 10:12:11;;;;;;;1.70;1.60;;;28.90;30.50;;;;;;4177065;28;20208;-69
2022/08/03 10:14:18;;;;;;;2.33;2.13;;;29.40;29.60;;;;;;4179225;28;20176;-70
2022/08/03 10:16:19;;;;;;;4.47;4.20;;;29.60;29.10;;;;;;4179138;28;20181;-70
2022/08/03 10:18:19;;;;;;;15.13;14.27;;;29.90;28.60;;;;;;4179163;28;20188;-70
2022/08/03 10:20:20;;;;;;;2.60;1.73;;;29.70;28.40;;;;;;4178377;28;20184;-70
2022/08/03 10:22:27;;;;;;;2.93;2.30;;;30.00;28.10;;;;;;4179354;28;20222;-69
2022/08/03 10:24:29;;;;;;;3.60;3.23;;;30.30;27.60;;;;;;4178947;28;20548;-70
2022/08/03 10:26:33;;;;;;;47.80;45.00;;;29.90;26.90;;;;;;4177739;28;20660;-69
2022/08/03 10:28:39;;;;;;;1.80;1.70;;;29.80;27.00;;;;;;4170031;28;20525;-69
2022/08/03 10:30:44;;;;;;;10.13;9.55;;;29.70;27.90;;;;;;4160366;28;20227;-69
2022/08/03 10:32:56;;;;;;;3.42;3.13;;;30.00;27.00;;;;;;4161250;28;20790;-69
2022/08/03 10:35:11;;;;;;;6.28;5.88;;;29.90;26.90;;;;;;4161288;28;20240;-71
2022/08/03 10:37:16;;;;;;;2.20;2.10;;;29.60;27.40;;;;;;4162559;28;20204;-69
2022/08/03 10:39:21;;;;;;;4.32;2.30;;;29.90;27.20;;;;;;4162485;28;20196;-69
2022/08/03 10:41:28;;;;;;;2.25;2.05;;;31.00;26.40;;;;;;4162088;28;20200;-70
2022/08/03 10:43:58;;;;;;;2.40;2.20;;;31.50;25.60;;;;;;4161247;28;20171;-70
2022/08/03 10:46:01;;;;;;;2.40;2.13;;;32.40;24.30;;;;;;4160243;28;20196;-69